createdAt,value
2022-12-17T00:01:18.855Z,19.98
2022-12-17T00:04:04.309Z,18.80
2022-12-17T00:06:49.733Z,20.75
2022-12-17T00:09:35.087Z,20.13
2022-12-17T00:12:20.454Z,19.67
2022-12-17T00:15:05.937Z,19.90
2022-12-17T00:17:51.135Z,19.83
2022-12-17T00:20:37.235Z,20.60
2022-12-17T00:23:23.728Z,20.58
2022-12-17T00:26:13.675Z,21.95
2022-12-17T00:28:59.658Z,19.63
2022-12-17T00:31:48.315Z,19.35
2022-12-17T00:34:34.175Z,20.63
2022-12-17T00:37:20.181Z,19.73
2022-12-17T00:40:05.560Z,20.60
2022-12-17T00:42:50.906Z,19.75
2022-12-17T00:45:54.457Z,20.65
2022-12-17T00:48:43.743Z,21.40
2022-12-17T00:51:29.073Z,21.27
2022-12-17T00:54:24.976Z,21.63
2022-12-17T00:57:10.548Z,21.55
2022-12-17T00:59:56.446Z,21.63
2022-12-17T01:02:43.029Z,20.98
2022-12-17T01:05:29.399Z,20.90
2022-12-17T01:08:15.201Z,20.00
2022-12-17T01:11:00.319Z,20.98
2022-12-17T01:13:46.210Z,21.90
2022-12-17T01:16:37.968Z,20.98
2022-12-17T01:19:23.335Z,23.05
2022-12-17T01:22:08.816Z,20.98
2022-12-17T01:24:56.086Z,21.33
2022-12-17T01:27:41.458Z,20.67
2022-12-17T01:30:28.330Z,21.05
2022-12-17T01:33:23.369Z,21.25
2022-12-17T01:36:08.962Z,21.00
2022-12-17T01:38:54.160Z,19.63
2022-12-17T01:41:39.407Z,20.27
2022-12-17T01:44:59.224Z,20.58
2022-12-17T01:47:47.238Z,19.40
2022-12-17T01:50:35.574Z,21.02
2022-12-17T01:53:22.122Z,19.95
2022-12-17T01:56:07.551Z,20.30
2022-12-17T01:58:53.858Z,20.65
2022-12-17T02:01:40.492Z,21.02
2022-12-17T02:04:28.170Z,19.88
2022-12-17T02:07:38.601Z,20.15
2022-12-17T02:10:39.329Z,19.40
2022-12-17T02:13:35.702Z,19.65
2022-12-17T02:16:32.632Z,17.98
2022-12-17T02:19:34.496Z,19.00
2022-12-17T02:22:25.911Z,19.08
2022-12-17T02:25:22.515Z,18.33
2022-12-17T02:28:08.189Z,19.17
2022-12-17T02:30:53.814Z,19.60
2022-12-17T02:33:39.213Z,20.13
2022-12-17T02:36:25.537Z,21.25
2022-12-17T02:39:11.047Z,19.88
2022-12-17T02:42:02.380Z,19.85
2022-12-17T02:44:49.259Z,19.70
2022-12-17T02:47:35.145Z,20.10
2022-12-17T02:50:20.637Z,19.77
2022-12-17T02:53:07.240Z,19.70
2022-12-17T02:55:55.176Z,19.63
2022-12-17T02:58:40.832Z,20.38
2022-12-17T03:01:26.657Z,18.88
2022-12-17T03:04:13.234Z,20.10
2022-12-17T03:07:01.882Z,20.85
2022-12-17T03:09:47.213Z,20.52
2022-12-17T03:12:32.578Z,19.50
2022-12-17T03:15:17.851Z,18.58
2022-12-17T03:18:03.810Z,19.15
2022-12-17T03:20:49.572Z,20.88
2022-12-17T03:23:35.212Z,20.98
2022-12-17T03:26:21.957Z,19.63
2022-12-17T03:29:07.877Z,20.25
2022-12-17T03:31:53.219Z,20.42
2022-12-17T03:34:38.647Z,19.35
2022-12-17T03:37:24.494Z,20.20
2022-12-17T03:40:10.048Z,20.13
2022-12-17T03:42:55.483Z,20.67
2022-12-17T03:45:40.811Z,19.73
2022-12-17T03:48:31.653Z,20.80
2022-12-17T03:51:17.466Z,19.80
2022-12-17T03:54:04.010Z,19.52
2022-12-17T03:56:49.914Z,19.25
2022-12-17T03:59:35.870Z,20.35
2022-12-17T04:02:21.303Z,21.10
2022-12-17T04:05:07.187Z,19.52
2022-12-17T04:07:52.601Z,19.15
2022-12-17T04:10:37.758Z,20.73
2022-12-17T04:13:23.219Z,18.33
2022-12-17T04:16:08.543Z,19.92
2022-12-17T04:18:56.825Z,19.95
2022-12-17T04:21:42.330Z,19.23
2022-12-17T04:24:27.622Z,18.52
2022-12-17T04:27:13.435Z,18.83
2022-12-17T04:29:58.627Z,20.40
2022-12-17T04:32:43.918Z,18.73
2022-12-17T04:35:29.359Z,20.75
2022-12-17T04:38:15.396Z,19.38
2022-12-17T04:41:11.302Z,18.48
2022-12-17T04:44:01.267Z,19.17
2022-12-17T04:46:48.426Z,19.45
2022-12-17T04:49:33.877Z,19.88
2022-12-17T04:52:19.146Z,21.33
2022-12-17T04:55:04.437Z,20.02
2022-12-17T04:57:49.636Z,19.65
2022-12-17T05:00:39.666Z,20.42
2022-12-17T05:03:27.549Z,19.00
2022-12-17T05:06:13.053Z,19.80
2022-12-17T05:08:58.363Z,19.25
2022-12-17T05:11:43.807Z,19.33
2022-12-17T05:14:28.972Z,19.55
2022-12-17T05:17:14.992Z,18.98
2022-12-17T05:20:00.203Z,19.17
2022-12-17T05:22:45.403Z,19.48
2022-12-17T05:25:30.787Z,18.50
2022-12-17T05:28:16.070Z,18.73
2022-12-17T05:31:01.708Z,17.73
2022-12-17T05:33:47.108Z,19.30
2022-12-17T05:36:32.430Z,18.20
2022-12-17T05:39:17.870Z,19.77
2022-12-17T05:42:03.136Z,19.73
2022-12-17T05:44:48.563Z,17.45
2022-12-17T05:47:34.124Z,17.55
2022-12-17T05:50:19.592Z,19.10
2022-12-17T05:53:05.010Z,18.55
2022-12-17T05:55:50.280Z,20.33
2022-12-17T05:58:36.577Z,18.25
2022-12-17T06:01:23.506Z,18.95
2022-12-17T06:04:10.113Z,17.88
2022-12-17T06:06:55.596Z,17.67
2022-12-17T06:09:40.921Z,18.50
2022-12-17T06:12:26.308Z,19.60
2022-12-17T06:15:11.576Z,18.23
2022-12-17T06:17:57.599Z,18.58
2022-12-17T06:20:43.244Z,18.52
2022-12-17T06:23:29.437Z,18.80
2022-12-17T06:26:15.819Z,17.13
2022-12-17T06:29:02.293Z,18.10
2022-12-17T06:31:47.587Z,19.00
2022-12-17T06:34:33.070Z,18.88
2022-12-17T06:37:18.519Z,18.42
2022-12-17T06:40:06.365Z,19.23
2022-12-17T06:42:51.887Z,18.98
2022-12-17T06:45:38.045Z,18.52
2022-12-17T06:48:25.620Z,18.60
2022-12-17T06:51:14.786Z,17.00
2022-12-17T06:54:01.242Z,18.17
2022-12-17T06:56:46.815Z,17.00
2022-12-17T06:59:32.178Z,17.55
2022-12-17T07:02:17.547Z,18.13
2022-12-17T07:05:02.922Z,18.10
2022-12-17T07:07:48.292Z,16.98
2022-12-17T07:10:33.552Z,18.85
2022-12-17T07:13:26.049Z,18.90
2022-12-17T07:16:12.012Z,17.02
2022-12-17T07:18:58.753Z,17.25
2022-12-17T07:21:56.268Z,17.08
2022-12-17T07:24:42.049Z,17.15
2022-12-17T07:27:28.567Z,18.00
2022-12-17T07:30:39.751Z,18.13
2022-12-17T07:33:26.226Z,18.05
2022-12-17T07:36:12.855Z,17.65
2022-12-17T07:38:58.553Z,16.85
2022-12-17T07:41:44.542Z,17.42
2022-12-17T07:44:30.980Z,15.90
2022-12-17T07:47:16.604Z,16.77
2022-12-17T07:50:03.014Z,15.77
2022-12-17T07:52:50.210Z,16.35
2022-12-17T07:55:35.745Z,16.58
2022-12-17T07:58:23.603Z,15.77
2022-12-17T08:01:09.131Z,16.58
2022-12-17T08:04:11.445Z,16.55
2022-12-17T08:07:02.841Z,16.48
2022-12-17T08:09:49.755Z,16.52
2022-12-17T08:12:34.913Z,16.77
2022-12-17T08:15:20.429Z,16.88
2022-12-17T08:18:06.186Z,19.02
2022-12-17T08:20:51.658Z,15.45
2022-12-17T08:23:37.464Z,17.17
2022-12-17T08:26:23.372Z,16.55
2022-12-17T08:29:09.655Z,16.50
2022-12-17T08:31:55.656Z,17.02
2022-12-17T08:34:50.150Z,17.73
2022-12-17T08:37:53.241Z,17.48
2022-12-17T08:40:38.817Z,17.17
2022-12-17T08:43:25.591Z,18.73
2022-12-17T08:46:12.563Z,17.33
2022-12-17T08:49:02.290Z,18.35
2022-12-17T08:51:49.658Z,16.80
2022-12-17T08:54:35.296Z,18.10
2022-12-17T08:57:31.369Z,17.42
2022-12-17T09:00:18.597Z,16.88
2022-12-17T09:03:04.201Z,18.15
2022-12-17T09:05:50.532Z,17.40
2022-12-17T09:08:35.925Z,18.73
2022-12-17T09:11:28.917Z,16.77
2022-12-17T09:14:14.243Z,17.50
2022-12-17T09:16:59.787Z,17.35
2022-12-17T09:19:46.389Z,17.58
2022-12-17T09:22:32.632Z,17.95
2022-12-17T09:25:18.132Z,17.02
2022-12-17T09:28:03.689Z,18.80
2022-12-17T09:30:49.419Z,17.98
2022-12-17T09:33:35.628Z,17.15
2022-12-17T09:36:25.377Z,16.58
2022-12-17T09:39:10.923Z,16.95
2022-12-17T09:42:19.618Z,16.80
2022-12-17T09:45:44.474Z,16.75
2022-12-17T09:48:40.779Z,16.52
2022-12-17T09:51:40.226Z,18.05
2022-12-17T09:54:31.005Z,17.95
2022-12-17T09:57:16.818Z,18.58
2022-12-17T10:00:02.392Z,18.50
2022-12-17T10:02:57.985Z,18.10
2022-12-17T10:05:46.399Z,17.77
2022-12-17T10:08:33.897Z,18.90
2022-12-17T10:11:37.390Z,18.95
2022-12-17T10:14:34.224Z,17.25
2022-12-17T10:17:19.499Z,17.80
2022-12-17T10:20:08.868Z,17.33
2022-12-17T10:23:07.557Z,18.45
2022-12-17T10:25:55.807Z,17.88
2022-12-17T10:28:43.320Z,17.10
2022-12-17T10:31:37.979Z,16.75
2022-12-17T10:34:30.928Z,17.58
2022-12-17T10:37:16.432Z,17.80
2022-12-17T10:40:01.766Z,17.48
2022-12-17T10:42:56.236Z,19.33
2022-12-17T10:45:46.008Z,15.98
2022-12-17T10:48:40.611Z,18.38
2022-12-17T10:51:55.374Z,18.15
2022-12-17T10:55:04.301Z,17.95
2022-12-17T11:01:12.260Z,18.02
2022-12-17T11:04:08.259Z,18.00
2022-12-17T11:07:00.358Z,18.98
2022-12-17T11:09:48.694Z,17.83
2022-12-17T11:12:35.742Z,19.27
2022-12-17T11:15:45.030Z,20.27
2022-12-17T11:18:42.767Z,19.25
2022-12-17T11:21:32.363Z,19.10
2022-12-17T11:24:22.486Z,18.80
2022-12-17T11:27:11.042Z,18.40
2022-12-17T11:29:56.340Z,17.55
2022-12-17T11:33:10.531Z,20.10
2022-12-17T11:36:08.015Z,18.92
2022-12-17T11:38:58.597Z,17.75
2022-12-17T11:42:09.511Z,19.05
2022-12-17T11:45:13.971Z,18.50
2022-12-17T11:48:13.711Z,19.05
2022-12-17T11:51:23.975Z,19.08
2022-12-17T11:54:20.098Z,18.20
2022-12-17T11:57:18.775Z,18.73
2022-12-17T12:00:27.251Z,18.02
2022-12-17T12:03:17.955Z,18.75
2022-12-17T12:06:11.281Z,18.58
2022-12-17T12:09:23.571Z,18.67
2022-12-17T12:12:21.659Z,17.73
2022-12-17T12:15:16.532Z,18.45
2022-12-17T12:18:31.995Z,17.48
2022-12-17T12:22:04.810Z,18.30
2022-12-17T12:25:05.806Z,17.80
2022-12-17T12:28:14.870Z,18.00
2022-12-17T12:31:30.295Z,18.05
2022-12-17T12:34:22.049Z,24.50
2022-12-17T12:37:07.911Z,18.98
2022-12-17T12:39:57.596Z,23.25
2022-12-17T12:42:50.994Z,17.05
2022-12-17T12:45:52.053Z,17.83
2022-12-17T12:48:38.558Z,16.98
2022-12-17T12:51:45.181Z,18.08
2022-12-17T12:54:51.965Z,16.42
2022-12-17T12:57:53.619Z,17.52
2022-12-17T13:00:59.123Z,16.48
2022-12-17T13:04:06.535Z,16.80
2022-12-17T13:06:49.732Z,16.67
2022-12-17T13:09:20.883Z,16.55
2022-12-17T13:11:48.704Z,16.60
2022-12-17T13:14:51.087Z,17.00
2022-12-17T13:17:30.263Z,15.57
2022-12-17T13:19:57.052Z,16.58
2022-12-17T13:22:24.604Z,17.60
2022-12-17T13:24:54.044Z,16.75
2022-12-17T13:27:31.088Z,16.50
2022-12-17T13:30:00.041Z,17.60
2022-12-17T13:32:34.291Z,18.48
2022-12-17T13:35:25.945Z,18.75
2022-12-17T13:38:00.435Z,17.33
2022-12-17T13:40:48.648Z,17.45
2022-12-17T13:43:21.403Z,17.70
2022-12-17T13:45:48.697Z,18.52
2022-12-17T13:48:24.076Z,18.88
2022-12-17T13:50:59.719Z,22.58
2022-12-17T13:53:27.490Z,18.67
2022-12-17T13:55:58.306Z,17.98
2022-12-17T13:58:31.714Z,18.98
2022-12-17T14:01:12.646Z,18.27
2022-12-17T14:06:29.779Z,18.85
2022-12-17T14:08:57.527Z,18.33
2022-12-17T14:11:43.178Z,19.35
2022-12-17T14:14:31.841Z,19.20
2022-12-17T14:16:59.177Z,18.45
2022-12-17T14:19:27.102Z,19.30
2022-12-17T14:21:54.704Z,19.85
2022-12-17T14:24:27.341Z,18.98
2022-12-17T14:26:59.349Z,19.13
2022-12-17T14:29:30.958Z,19.25
2022-12-17T14:32:03.065Z,19.75
2022-12-17T14:34:41.084Z,18.20
2022-12-17T14:37:17.686Z,18.13
2022-12-17T14:39:46.142Z,19.42
2022-12-17T14:42:32.859Z,20.15
2022-12-17T14:45:02.372Z,20.58
2022-12-17T14:47:33.950Z,19.52
2022-12-17T14:50:33.668Z,20.80
2022-12-17T14:53:02.865Z,20.35
2022-12-17T14:55:55.479Z,19.23
2022-12-17T14:58:24.450Z,19.85
2022-12-17T15:00:54.307Z,18.80
2022-12-17T15:03:29.670Z,20.60
2022-12-17T15:06:08.220Z,20.02
2022-12-17T15:08:43.190Z,20.40
2022-12-17T15:11:14.596Z,20.48
2022-12-17T15:13:42.444Z,20.50
2022-12-17T15:16:09.323Z,18.60
2022-12-17T15:18:36.632Z,19.77
2022-12-17T15:21:05.100Z,18.73
2022-12-17T15:23:32.077Z,20.15
2022-12-17T15:25:59.089Z,19.65
2022-12-17T15:28:31.196Z,20.17
2022-12-17T15:30:58.097Z,20.02
2022-12-17T15:33:24.851Z,20.67
2022-12-17T15:35:52.524Z,19.45
2022-12-17T15:38:19.398Z,20.00
2022-12-17T15:40:46.456Z,19.85
2022-12-17T15:43:16.186Z,20.83
2022-12-17T15:45:50.561Z,20.02
2022-12-17T15:48:20.122Z,19.88
2022-12-17T15:50:47.665Z,20.30
2022-12-17T15:53:14.996Z,20.65
2022-12-17T15:55:42.038Z,20.63
2022-12-17T15:58:11.427Z,19.98
2022-12-17T16:00:38.465Z,19.83
2022-12-17T16:03:05.438Z,19.70
2022-12-17T16:05:32.512Z,19.08
2022-12-17T16:08:02.395Z,19.75
2022-12-17T16:10:29.912Z,19.55
2022-12-17T16:12:57.578Z,20.23
2022-12-17T16:15:24.737Z,19.65
2022-12-17T16:17:52.340Z,19.65
2022-12-17T16:20:19.899Z,18.25
2022-12-17T16:22:46.636Z,19.05
2022-12-17T16:25:13.760Z,20.17
2022-12-17T16:27:43.318Z,17.80
2022-12-17T16:30:11.434Z,17.77
2022-12-17T16:32:38.749Z,17.23
2022-12-17T16:35:08.983Z,17.20
2022-12-17T16:37:36.008Z,17.58
2022-12-17T16:40:13.241Z,16.55
2022-12-17T16:42:40.231Z,17.02
2022-12-17T16:45:07.809Z,17.77
2022-12-17T16:47:36.659Z,18.30
2022-12-17T16:50:04.272Z,18.23
2022-12-17T16:52:37.237Z,18.83
2022-12-17T16:55:04.979Z,16.75
2022-12-17T16:57:32.204Z,19.30
2022-12-17T17:00:03.577Z,16.92
2022-12-17T17:02:33.204Z,18.17
2022-12-17T17:05:00.153Z,19.35
2022-12-17T17:07:26.922Z,18.15
2022-12-17T17:09:53.626Z,19.02
2022-12-17T17:12:20.621Z,17.98
2022-12-17T17:14:47.345Z,17.02
2022-12-17T17:17:15.453Z,16.73
2022-12-17T17:19:45.075Z,15.40
2022-12-17T17:22:12.932Z,16.23
2022-12-17T17:24:39.734Z,16.45
2022-12-17T17:27:06.579Z,16.30
2022-12-17T17:29:33.531Z,16.23
2022-12-17T17:32:15.588Z,16.38
2022-12-17T17:34:42.506Z,16.60
2022-12-17T17:37:09.471Z,15.88
2022-12-17T17:39:36.420Z,17.15
2022-12-17T17:42:03.304Z,17.40
2022-12-17T17:44:29.989Z,18.65
2022-12-17T17:46:56.935Z,17.55
2022-12-17T17:49:24.461Z,16.95
2022-12-17T17:54:39.652Z,16.83
2022-12-17T17:57:06.820Z,16.98
2022-12-17T17:59:34.394Z,16.85
2022-12-17T18:02:26.909Z,15.45
2022-12-17T18:04:54.958Z,16.00
2022-12-17T18:07:26.409Z,15.57
2022-12-17T18:09:54.879Z,15.55
2022-12-17T18:12:42.126Z,15.65
2022-12-17T18:15:14.800Z,16.17
2022-12-17T18:17:44.364Z,16.65
2022-12-17T18:20:13.552Z,15.13
2022-12-17T18:22:40.437Z,16.27
2022-12-17T18:25:07.550Z,15.02
2022-12-17T18:27:34.436Z,14.13
2022-12-17T18:30:01.144Z,15.77
2022-12-17T18:32:27.976Z,15.93
2022-12-17T18:34:54.999Z,15.18
2022-12-17T18:37:25.336Z,15.63
2022-12-17T18:39:52.154Z,15.25
2022-12-17T18:42:37.543Z,14.63
2022-12-17T18:45:04.903Z,15.32
2022-12-17T18:47:31.620Z,14.52
2022-12-17T18:49:58.607Z,14.48
2022-12-17T18:52:25.759Z,15.27
2022-12-17T18:54:52.766Z,14.57
2022-12-17T18:57:20.352Z,14.85
2022-12-17T18:59:47.233Z,15.13
2022-12-17T19:02:15.129Z,15.50
2022-12-17T19:04:42.132Z,15.00
2022-12-17T19:07:11.473Z,14.95
2022-12-17T19:09:40.265Z,15.25
2022-12-17T19:12:08.717Z,13.65
2022-12-17T19:14:38.595Z,14.68
2022-12-17T19:17:06.072Z,14.02
2022-12-17T19:19:33.339Z,13.23
2022-12-17T19:22:00.452Z,14.75
2022-12-17T19:24:30.641Z,14.32
2022-12-17T19:27:00.281Z,14.80
2022-12-17T19:29:27.373Z,13.52
2022-12-17T19:31:54.260Z,13.60
2022-12-17T19:34:21.092Z,15.00
2022-12-17T19:36:48.150Z,14.63
2022-12-17T19:39:18.151Z,14.98
2022-12-17T19:41:45.545Z,15.23
2022-12-17T19:44:14.894Z,13.50
2022-12-17T19:46:42.148Z,13.40
2022-12-17T19:49:12.315Z,14.32
2022-12-17T19:51:41.567Z,14.20
2022-12-17T19:54:09.539Z,15.00
2022-12-17T19:56:36.839Z,14.77
2022-12-17T19:59:09.454Z,14.23
2022-12-17T20:01:39.998Z,15.60
2022-12-17T20:04:12.016Z,15.60
2022-12-17T20:06:39.025Z,14.73
2022-12-17T20:09:07.176Z,16.45
2022-12-17T20:11:39.000Z,17.00
2022-12-17T20:14:13.319Z,16.02
2022-12-17T20:16:44.726Z,16.10
2022-12-17T20:19:14.552Z,15.73
2022-12-17T20:21:41.607Z,15.88
2022-12-17T20:24:08.626Z,16.00
2022-12-17T20:26:36.910Z,17.30
2022-12-17T20:29:09.090Z,15.40
2022-12-17T20:31:38.303Z,15.82
2022-12-17T20:34:07.054Z,15.00
2022-12-17T20:36:36.710Z,15.57
2022-12-17T20:39:03.708Z,15.23
2022-12-17T20:41:31.349Z,15.10
2022-12-17T20:43:58.565Z,16.52
2022-12-17T20:46:26.063Z,14.48
2022-12-17T20:48:52.900Z,15.30
2022-12-17T20:51:26.584Z,16.92
2022-12-17T20:53:54.698Z,16.27
2022-12-17T20:56:28.692Z,16.05
2022-12-17T20:58:59.042Z,16.38
2022-12-17T21:01:28.572Z,16.02
2022-12-17T21:03:57.023Z,16.15
2022-12-17T21:06:27.771Z,15.05
2022-12-17T21:08:55.530Z,15.10
2022-12-17T21:11:24.646Z,15.93
2022-12-17T21:13:52.200Z,15.98
2022-12-17T21:16:21.701Z,14.15
2022-12-17T21:18:48.867Z,14.77
2022-12-17T21:21:20.852Z,14.48
2022-12-17T21:23:51.889Z,15.55
2022-12-17T21:26:22.177Z,15.35
2022-12-17T21:28:54.537Z,15.40
2022-12-17T21:31:27.503Z,14.85
2022-12-17T21:33:57.890Z,15.40
2022-12-17T21:36:26.399Z,14.60
2022-12-17T21:38:54.911Z,14.55
2022-12-17T21:41:33.509Z,14.27
2022-12-17T21:44:03.050Z,14.38
2022-12-17T21:46:38.351Z,13.93
2022-12-17T21:49:05.506Z,13.98
2022-12-17T21:51:36.181Z,14.27
2022-12-17T21:54:08.189Z,14.70
2022-12-17T21:56:38.282Z,15.38
2022-12-17T21:59:05.134Z,14.93
2022-12-17T22:01:41.785Z,15.63
2022-12-17T22:04:15.153Z,15.25
2022-12-17T22:06:51.140Z,15.38
2022-12-17T22:10:09.306Z,16.20
2022-12-17T22:12:36.658Z,14.50
2022-12-17T22:15:06.484Z,14.38
2022-12-17T22:17:33.783Z,16.20
2022-12-17T22:20:00.576Z,14.55
2022-12-17T22:22:27.518Z,14.43
2022-12-17T22:24:54.574Z,14.25
2022-12-17T22:27:21.553Z,14.52
2022-12-17T22:30:06.936Z,15.02
2022-12-17T22:32:52.305Z,14.95
2022-12-17T22:36:36.815Z,15.02
2022-12-17T22:42:05.746Z,15.30
2022-12-17T22:44:32.403Z,13.93
2022-12-17T22:44:43.913Z,14.63
2022-12-17T22:46:29.716Z,14.60
2022-12-17T22:48:57.445Z,14.55
2022-12-17T22:51:37.527Z,14.77
2022-12-17T22:54:06.625Z,14.93
2022-12-17T22:56:49.134Z,14.75
2022-12-17T22:59:21.824Z,14.25
2022-12-17T23:01:48.919Z,13.93
2022-12-17T23:04:16.579Z,14.32
2022-12-17T23:06:46.785Z,13.88
2022-12-17T23:09:19.453Z,13.40
2022-12-17T23:11:48.198Z,14.00
2022-12-17T23:14:15.288Z,13.93
2022-12-17T23:16:44.211Z,14.45
2022-12-17T23:19:11.369Z,14.73
2022-12-17T23:21:38.629Z,13.23
2022-12-17T23:24:06.159Z,14.00
2022-12-17T23:26:35.955Z,13.45
2022-12-17T23:29:08.287Z,13.10
2022-12-17T23:31:38.081Z,14.35
2022-12-17T23:34:05.005Z,13.07
2022-12-17T23:36:32.029Z,12.93
2022-12-17T23:38:58.971Z,14.30
2022-12-17T23:41:31.007Z,14.02
2022-12-17T23:43:58.673Z,13.93
2022-12-17T23:46:27.273Z,14.10
2022-12-17T23:48:54.583Z,13.32
2022-12-17T23:51:22.696Z,14.68
2022-12-17T23:53:49.560Z,15.55
2022-12-17T23:56:19.245Z,13.48
2022-12-17T23:58:46.688Z,14.18
